createdAt,value
2017-10-11T00:02:01.287Z,10.90
2017-10-11T00:04:30.463Z,10.90
2017-10-11T00:06:58.863Z,10.90
2017-10-11T00:09:28.047Z,10.90
2017-10-11T00:11:56.459Z,10.90
2017-10-11T00:14:24.853Z,11.00
2017-10-11T00:16:53.425Z,11.00
2017-10-11T00:19:21.832Z,11.00
2017-10-11T00:21:50.059Z,10.90
2017-10-11T00:24:19.251Z,10.90
2017-10-11T00:26:48.678Z,10.80
2017-10-11T00:29:17.081Z,10.80
2017-10-11T00:31:45.502Z,10.80
2017-10-11T00:34:14.699Z,10.50
2017-10-11T00:36:43.878Z,10.40
2017-10-11T00:39:12.310Z,10.40
2017-10-11T00:41:40.710Z,10.30
2017-10-11T00:44:09.122Z,10.30
2017-10-11T00:46:37.548Z,10.40
2017-10-11T00:49:05.969Z,10.40
2017-10-11T00:51:34.378Z,10.50
2017-10-11T00:54:03.218Z,10.40
2017-10-11T00:56:30.933Z,10.30
2017-10-11T00:58:59.417Z,10.30
2017-10-11T01:01:27.836Z,10.30
2017-10-11T01:03:56.235Z,10.20
2017-10-11T01:06:24.648Z,10.20
2017-10-11T01:08:53.835Z,10.30
2017-10-11T01:11:23.002Z,10.30
2017-10-11T01:13:51.411Z,10.30
2017-10-11T01:16:19.491Z,10.40
2017-10-11T01:18:48.659Z,10.50
2017-10-11T01:21:16.723Z,10.40
2017-10-11T01:23:44.458Z,10.50
2017-10-11T01:26:11.980Z,10.50
2017-10-11T01:28:40.796Z,10.50
2017-10-11T01:31:08.886Z,10.50
2017-10-11T01:33:37.890Z,10.60
2017-10-11T01:36:05.602Z,10.60
2017-10-11T01:38:33.330Z,10.60
2017-10-11T01:41:01.056Z,10.70
2017-10-11T01:43:28.778Z,10.70
2017-10-11T01:45:56.667Z,10.70
2017-10-11T01:48:24.259Z,10.70
2017-10-11T01:50:51.968Z,10.70
2017-10-11T01:53:20.066Z,10.60
2017-10-11T01:55:47.806Z,10.60
2017-10-11T01:58:16.221Z,10.60
2017-10-11T02:00:44.294Z,10.60
2017-10-11T02:03:12.698Z,10.60
2017-10-11T02:05:40.919Z,10.60
2017-10-11T02:08:09.158Z,10.50
2017-10-11T02:10:38.334Z,10.40
2017-10-11T02:13:06.550Z,10.30
2017-10-11T02:15:34.666Z,10.30
2017-10-11T02:18:02.894Z,10.20
2017-10-11T02:20:31.292Z,10.20
2017-10-11T02:22:59.736Z,10.10
2017-10-11T02:25:28.911Z,10.10
2017-10-11T02:27:57.312Z,10.10
2017-10-11T02:30:26.497Z,10.00
2017-10-11T02:32:54.710Z,10.00
2017-10-11T02:35:22.773Z,10.00
2017-10-11T02:37:51.195Z,9.90
2017-10-11T02:40:19.607Z,9.90
2017-10-11T02:42:48.780Z,10.00
2017-10-11T02:45:17.204Z,10.00
2017-10-11T02:47:45.610Z,10.10
2017-10-11T02:50:14.027Z,10.10
2017-10-11T02:52:43.214Z,10.10
2017-10-11T02:55:11.638Z,10.10
2017-10-11T02:57:40.042Z,10.10
2017-10-11T03:00:08.494Z,10.10
2017-10-11T03:02:36.912Z,10.10
2017-10-11T03:05:05.330Z,10.10
2017-10-11T03:07:34.524Z,10.00
2017-10-11T03:10:03.689Z,9.90
2017-10-11T03:12:32.103Z,9.90
2017-10-11T03:15:01.294Z,9.80
2017-10-11T03:17:30.468Z,9.90
2017-10-11T03:19:58.872Z,9.90
2017-10-11T03:22:28.062Z,9.90
2017-10-11T03:24:57.230Z,9.90
2017-10-11T03:27:25.639Z,9.90
2017-10-11T03:29:55.697Z,9.90
2017-10-11T03:32:24.106Z,10.00
2017-10-11T03:34:52.513Z,10.00
2017-10-11T03:37:21.711Z,10.00
2017-10-11T03:39:50.879Z,9.90
2017-10-11T03:42:19.937Z,9.90
2017-10-11T03:44:48.353Z,9.80
2017-10-11T03:47:16.768Z,9.70
2017-10-11T03:49:45.188Z,9.60
2017-10-11T03:52:13.606Z,9.50
2017-10-11T03:54:42.775Z,9.30
2017-10-11T03:57:11.179Z,9.30
2017-10-11T03:59:40.013Z,9.30
2017-10-11T04:02:08.416Z,9.30
2017-10-11T04:04:36.823Z,9.40
2017-10-11T04:07:06.010Z,9.40
2017-10-11T04:09:34.405Z,9.40
2017-10-11T04:12:03.385Z,9.30
2017-10-11T04:14:32.003Z,9.30
2017-10-11T04:17:00.425Z,9.30
2017-10-11T04:19:28.646Z,9.20
2017-10-11T04:21:57.642Z,9.30
2017-10-11T04:24:25.850Z,9.30
2017-10-11T04:26:54.059Z,9.30
2017-10-11T04:29:22.293Z,9.20
2017-10-11T04:31:50.510Z,9.20
2017-10-11T04:34:18.727Z,9.20
2017-10-11T04:36:46.950Z,9.20
2017-10-11T04:39:15.172Z,9.10
2017-10-11T04:41:43.388Z,9.10
2017-10-11T04:44:11.613Z,9.10
2017-10-11T04:46:39.825Z,9.10
2017-10-11T04:49:08.030Z,9.10
2017-10-11T04:51:37.017Z,9.10
2017-10-11T04:54:05.224Z,9.00
2017-10-11T04:56:33.271Z,9.00
2017-10-11T04:59:02.455Z,8.90
2017-10-11T05:01:30.858Z,8.90
2017-10-11T05:03:59.273Z,8.90
2017-10-11T05:06:27.841Z,8.80
2017-10-11T05:08:56.319Z,8.90
2017-10-11T05:11:24.735Z,8.80
2017-10-11T05:13:53.154Z,8.80
2017-10-11T05:16:22.327Z,8.70
2017-10-11T05:18:50.730Z,8.70
2017-10-11T05:21:19.908Z,8.70
2017-10-11T05:23:49.072Z,8.70
2017-10-11T05:26:17.470Z,8.70
2017-10-11T05:28:46.003Z,8.70
2017-10-11T05:31:14.421Z,8.80
2017-10-11T05:33:42.819Z,8.80
2017-10-11T05:36:12.000Z,8.80
2017-10-11T05:38:40.409Z,8.80
2017-10-11T05:41:09.575Z,9.00
2017-10-11T05:43:37.991Z,9.00
2017-10-11T05:46:06.389Z,9.00
2017-10-11T05:48:34.782Z,9.00
2017-10-11T05:51:03.209Z,9.00
2017-10-11T05:53:32.387Z,9.10
2017-10-11T05:56:00.787Z,9.10
2017-10-11T05:58:29.255Z,9.10
2017-10-11T06:00:57.663Z,9.10
2017-10-11T06:03:26.071Z,9.10
2017-10-11T06:05:54.487Z,9.20
2017-10-11T06:08:22.891Z,9.20
2017-10-11T06:10:51.105Z,9.30
2017-10-11T06:13:19.538Z,9.30
2017-10-11T06:15:48.718Z,9.50
2017-10-11T06:18:17.124Z,9.50
2017-10-11T06:20:45.555Z,9.50
2017-10-11T06:23:13.985Z,9.60
2017-10-11T06:25:42.391Z,9.60
2017-10-11T06:28:10.806Z,9.60
2017-10-11T06:30:39.026Z,9.70
2017-10-11T06:33:07.345Z,9.80
2017-10-11T06:35:35.770Z,9.90
2017-10-11T06:38:04.173Z,9.90
2017-10-11T06:40:32.593Z,10.00
2017-10-11T06:43:01.024Z,10.10
2017-10-11T06:45:29.137Z,10.20
2017-10-11T06:47:57.545Z,10.20
2017-10-11T06:50:26.743Z,10.50
2017-10-11T06:52:55.155Z,10.40
2017-10-11T06:55:23.562Z,10.60
2017-10-11T06:57:53.495Z,11.00
2017-10-11T07:00:22.729Z,11.20
2017-10-11T07:02:51.133Z,11.20
2017-10-11T07:05:19.695Z,11.60
2017-10-11T07:07:48.110Z,11.90
2017-10-11T07:10:17.839Z,11.90
2017-10-11T07:12:47.033Z,11.70
2017-10-11T07:15:16.219Z,11.90
2017-10-11T07:17:44.617Z,11.80
2017-10-11T07:20:13.810Z,12.20
2017-10-11T07:22:42.983Z,12.50
2017-10-11T07:25:11.391Z,12.50
2017-10-11T07:27:40.387Z,14.00
2017-10-11T07:30:09.573Z,14.60
2017-10-11T07:32:38.743Z,15.10
2017-10-11T07:35:07.175Z,15.10
2017-10-11T07:37:35.570Z,15.60
2017-10-11T07:40:03.630Z,15.30
2017-10-11T07:42:31.906Z,15.20
2017-10-11T07:45:00.130Z,15.80
2017-10-11T07:47:28.534Z,16.20
2017-10-11T07:49:56.954Z,16.40
2017-10-11T07:52:25.371Z,17.10
2017-10-11T07:54:53.786Z,17.70
2017-10-11T07:57:22.026Z,18.20
2017-10-11T07:59:50.431Z,18.60
2017-10-11T08:02:18.839Z,18.20
2017-10-11T08:04:47.253Z,18.50
2017-10-11T08:07:15.131Z,19.00
2017-10-11T08:09:44.301Z,20.10
2017-10-11T08:12:12.735Z,20.10
2017-10-11T08:14:41.143Z,20.40
2017-10-11T08:17:09.203Z,20.10
2017-10-11T08:19:37.272Z,20.20
2017-10-11T08:22:05.690Z,19.70
2017-10-11T08:24:34.092Z,19.80
2017-10-11T08:27:03.416Z,20.00
2017-10-11T08:29:31.823Z,20.00
2017-10-11T08:32:00.240Z,20.10
2017-10-11T08:34:29.454Z,19.60
2017-10-11T08:36:57.862Z,19.50
2017-10-11T08:39:26.273Z,19.20
2017-10-11T08:41:54.698Z,19.10
2017-10-11T08:44:23.118Z,18.70
2017-10-11T08:46:52.387Z,18.80
2017-10-11T08:49:21.050Z,18.40
2017-10-11T08:51:49.459Z,18.10
2017-10-11T08:54:17.870Z,18.30
2017-10-11T08:56:46.297Z,18.10
2017-10-11T08:59:14.722Z,18.40
2017-10-11T09:01:43.129Z,19.00
2017-10-11T09:04:12.373Z,20.20
2017-10-11T09:06:40.771Z,20.20
2017-10-11T09:09:09.179Z,21.00
2017-10-11T09:11:38.183Z,21.50
2017-10-11T09:14:07.171Z,21.50
2017-10-11T09:16:36.174Z,21.40
2017-10-11T09:19:04.667Z,21.40
2017-10-11T09:21:33.071Z,21.70
2017-10-11T09:24:01.484Z,21.90
2017-10-11T09:26:30.683Z,22.10
2017-10-11T09:28:59.855Z,22.80
2017-10-11T09:31:28.259Z,22.80
2017-10-11T09:33:57.454Z,23.20
2017-10-11T09:36:26.631Z,23.30
2017-10-11T09:38:54.710Z,23.30
2017-10-11T09:41:23.902Z,23.50
2017-10-11T09:43:52.310Z,23.50
2017-10-11T09:46:21.481Z,23.90
2017-10-11T09:48:49.902Z,23.80
2017-10-11T09:51:18.332Z,24.20
2017-10-11T09:53:46.738Z,24.20
2017-10-11T09:56:15.942Z,24.90
2017-10-11T09:58:45.146Z,24.00
2017-10-11T10:01:13.680Z,23.90
2017-10-11T10:03:42.110Z,23.90
2017-10-11T10:06:10.599Z,24.40
2017-10-11T10:08:39.006Z,24.90
2017-10-11T10:11:07.425Z,25.00
2017-10-11T10:13:36.613Z,24.70
2017-10-11T10:16:05.025Z,24.60
2017-10-11T10:18:33.453Z,25.20
2017-10-11T10:21:01.866Z,25.80
2017-10-11T10:23:31.033Z,25.70
2017-10-11T10:25:59.445Z,25.70
2017-10-11T10:28:27.675Z,25.50
2017-10-11T10:30:56.091Z,25.50
2017-10-11T10:33:25.297Z,26.10
2017-10-11T10:35:53.793Z,26.10
2017-10-11T10:38:22.272Z,25.10
2017-10-11T10:40:50.698Z,25.20
2017-10-11T10:43:19.106Z,25.60
2017-10-11T10:45:48.279Z,23.80
2017-10-11T10:48:16.713Z,23.80
2017-10-11T10:50:45.170Z,23.20
2017-10-11T10:53:13.395Z,22.50
2017-10-11T10:55:41.466Z,22.30
2017-10-11T10:58:09.879Z,22.30
2017-10-11T11:00:39.048Z,21.90
2017-10-11T11:03:07.474Z,21.90
2017-10-11T11:05:35.894Z,21.40
2017-10-11T11:08:04.305Z,21.30
2017-10-11T11:10:33.510Z,21.50
2017-10-11T11:13:02.688Z,21.80
2017-10-11T11:15:31.094Z,21.80
2017-10-11T11:17:59.530Z,22.30
2017-10-11T11:20:29.506Z,22.30
2017-10-11T11:22:57.937Z,22.20
2017-10-11T11:25:26.948Z,23.60
2017-10-11T11:27:56.275Z,24.20
2017-10-11T11:30:24.710Z,24.10
2017-10-11T11:32:53.154Z,23.60
2017-10-11T11:35:21.799Z,23.90
2017-10-11T11:37:50.218Z,24.70
2017-10-11T11:40:18.645Z,25.90
2017-10-11T11:42:47.829Z,26.70
2017-10-11T11:45:16.246Z,26.70
2017-10-11T11:47:44.667Z,26.40
2017-10-11T11:50:13.071Z,26.40
2017-10-11T11:52:42.238Z,26.10
2017-10-11T11:55:10.675Z,26.10
2017-10-11T11:57:39.085Z,25.80
2017-10-11T12:00:08.826Z,26.20
2017-10-11T12:02:37.270Z,26.60
2017-10-11T12:05:06.518Z,27.60
2017-10-11T12:07:35.694Z,28.40
2017-10-11T12:10:04.519Z,28.30
2017-10-11T12:12:33.205Z,27.00
2017-10-11T12:15:01.662Z,26.40
2017-10-11T12:17:30.271Z,24.60
2017-10-11T12:19:58.765Z,24.00
2017-10-11T12:22:27.174Z,23.80
2017-10-11T12:24:55.631Z,24.00
2017-10-11T12:27:24.034Z,24.60
2017-10-11T12:29:52.469Z,25.80
2017-10-11T12:32:20.926Z,26.90
2017-10-11T12:34:50.204Z,26.90
2017-10-11T12:37:18.606Z,27.00
2017-10-11T12:39:48.190Z,25.10
2017-10-11T12:42:16.594Z,25.10
2017-10-11T12:44:45.054Z,23.90
2017-10-11T12:47:13.478Z,22.80
2017-10-11T12:49:41.896Z,21.90
2017-10-11T12:52:10.303Z,21.40
2017-10-11T12:54:39.486Z,20.70
2017-10-11T12:57:08.702Z,20.30
2017-10-11T12:59:37.347Z,20.30
2017-10-11T13:02:05.776Z,20.30
2017-10-11T13:04:34.189Z,20.00
2017-10-11T13:07:02.420Z,19.80
2017-10-11T13:09:31.014Z,19.80
2017-10-11T13:11:59.565Z,19.60
2017-10-11T13:14:28.747Z,19.40
2017-10-11T13:16:58.671Z,19.40
2017-10-11T13:19:27.868Z,19.30
2017-10-11T13:21:57.049Z,19.20
2017-10-11T13:24:25.476Z,19.20
2017-10-11T13:26:53.886Z,19.20
2017-10-11T13:29:22.131Z,19.20
2017-10-11T13:31:50.562Z,19.10
2017-10-11T13:34:18.977Z,19.00
2017-10-11T13:36:47.383Z,19.10
2017-10-11T13:39:16.605Z,19.10
2017-10-11T13:41:45.011Z,19.20
2017-10-11T13:44:14.259Z,19.30
2017-10-11T13:46:43.502Z,19.40
2017-10-11T13:49:12.679Z,19.40
2017-10-11T13:51:40.901Z,19.40
2017-10-11T13:54:09.148Z,19.30
2017-10-11T13:56:38.141Z,19.20
2017-10-11T13:59:07.131Z,19.10
2017-10-11T14:01:36.346Z,19.10
2017-10-11T14:04:04.750Z,19.10
2017-10-11T14:06:33.159Z,19.10
2017-10-11T14:09:01.790Z,19.00
2017-10-11T14:11:30.214Z,19.00
2017-10-11T14:13:58.626Z,19.10
2017-10-11T14:16:27.852Z,19.00
2017-10-11T14:18:56.069Z,19.00
2017-10-11T14:21:24.620Z,18.90
2017-10-11T14:23:52.873Z,18.80
2017-10-11T14:26:21.103Z,18.80
2017-10-11T14:28:49.517Z,18.70
2017-10-11T14:31:18.734Z,18.60
2017-10-11T14:33:46.948Z,18.60
2017-10-11T14:36:15.368Z,18.50
2017-10-11T14:38:44.567Z,18.50
2017-10-11T14:41:12.974Z,18.50
2017-10-11T14:43:41.193Z,18.40
2017-10-11T14:46:10.399Z,18.20
2017-10-11T14:48:40.121Z,18.20
2017-10-11T14:51:09.292Z,18.30
2017-10-11T14:53:37.726Z,18.30
2017-10-11T14:56:06.151Z,18.20
2017-10-11T14:58:35.357Z,18.20
2017-10-11T15:01:05.701Z,18.20
2017-10-11T15:03:34.118Z,18.20
2017-10-11T15:06:02.537Z,18.20
2017-10-11T15:08:31.869Z,18.00
2017-10-11T15:11:00.356Z,18.00
2017-10-11T15:13:28.778Z,17.90
2017-10-11T15:15:57.218Z,17.80
2017-10-11T15:18:25.635Z,17.60
2017-10-11T15:20:55.537Z,17.50
2017-10-11T15:23:23.957Z,17.50
2017-10-11T15:25:53.224Z,17.60
2017-10-11T15:28:21.692Z,17.60
2017-10-11T15:30:50.106Z,17.50
2017-10-11T15:33:19.285Z,17.30
2017-10-11T15:35:48.459Z,17.20
2017-10-11T15:38:16.906Z,17.10
2017-10-11T15:40:47.099Z,17.00
2017-10-11T15:43:17.551Z,16.80
2017-10-11T15:45:46.140Z,16.80
2017-10-11T15:48:14.571Z,16.70
2017-10-11T15:50:42.979Z,16.60
2017-10-11T15:53:11.422Z,16.60
2017-10-11T15:55:40.671Z,16.50
2017-10-11T15:58:09.294Z,16.40
2017-10-11T16:00:38.190Z,16.40
2017-10-11T16:03:06.610Z,16.30
2017-10-11T16:05:35.106Z,16.20
2017-10-11T16:08:03.522Z,16.20
2017-10-11T16:10:32.006Z,16.10
2017-10-11T16:13:00.416Z,16.00
2017-10-11T16:15:29.640Z,15.90
2017-10-11T16:17:58.113Z,15.80
2017-10-11T16:20:26.520Z,15.70
2017-10-11T16:22:55.942Z,15.60
2017-10-11T16:25:24.355Z,15.60
2017-10-11T16:27:53.333Z,15.40
2017-10-11T16:30:22.522Z,15.20
2017-10-11T16:32:50.943Z,15.20
2017-10-11T16:35:19.424Z,15.10
2017-10-11T16:37:47.845Z,15.00
2017-10-11T16:40:16.256Z,14.90
2017-10-11T16:42:45.415Z,14.70
2017-10-11T16:45:13.831Z,14.70
2017-10-11T16:47:43.006Z,14.50
2017-10-11T16:50:12.649Z,14.40
2017-10-11T16:52:41.065Z,14.30
2017-10-11T16:55:09.475Z,14.30
2017-10-11T16:57:37.883Z,14.30
2017-10-11T17:00:06.301Z,14.20
2017-10-11T17:02:34.703Z,14.20
2017-10-11T17:05:03.115Z,14.00
2017-10-11T17:07:31.554Z,14.00
2017-10-11T17:09:59.990Z,13.90
2017-10-11T17:12:28.398Z,13.80
2017-10-11T17:14:56.834Z,13.80
2017-10-11T17:17:25.298Z,13.70
2017-10-11T17:19:54.480Z,13.70
2017-10-11T17:22:23.663Z,13.70
2017-10-11T17:24:52.066Z,13.60
2017-10-11T17:27:21.239Z,13.50
2017-10-11T17:29:49.658Z,13.50
2017-10-11T17:32:18.079Z,13.50
2017-10-11T17:34:46.497Z,13.40
2017-10-11T17:37:15.692Z,13.30
2017-10-11T17:39:44.860Z,13.30
2017-10-11T17:42:13.275Z,13.20
2017-10-11T17:44:42.460Z,13.20
2017-10-11T17:47:11.631Z,13.10
2017-10-11T17:49:40.052Z,13.10
2017-10-11T17:52:08.632Z,13.00
2017-10-11T17:54:37.037Z,12.90
2017-10-11T17:57:05.455Z,12.80
2017-10-11T17:59:33.910Z,12.70
2017-10-11T18:02:02.324Z,12.70
2017-10-11T18:04:30.742Z,12.70
2017-10-11T18:06:59.163Z,12.70
2017-10-11T18:09:27.573Z,12.70
2017-10-11T18:11:56.735Z,12.60
2017-10-11T18:14:25.203Z,12.60
2017-10-11T18:16:53.611Z,12.60
2017-10-11T18:19:22.023Z,12.60
2017-10-11T18:21:51.432Z,12.50
2017-10-11T18:24:19.846Z,12.40
2017-10-11T18:26:48.266Z,12.30
2017-10-11T18:29:17.471Z,12.30
2017-10-11T18:31:45.878Z,12.20
2017-10-11T18:34:14.286Z,12.30
2017-10-11T18:36:42.914Z,12.20
2017-10-11T18:39:11.326Z,12.10
2017-10-11T18:41:39.753Z,12.00
2017-10-11T18:44:09.002Z,12.00
2017-10-11T18:46:37.421Z,11.90
2017-10-11T18:49:06.585Z,12.00
2017-10-11T18:51:35.090Z,12.00
2017-10-11T18:54:03.879Z,11.90
2017-10-11T18:56:32.342Z,11.90
2017-10-11T18:59:00.782Z,11.70
2017-10-11T19:01:29.053Z,11.70
2017-10-11T19:03:57.469Z,11.60
2017-10-11T19:06:25.889Z,11.60
2017-10-11T19:08:55.061Z,11.60
2017-10-11T19:11:23.473Z,11.60
2017-10-11T19:13:51.911Z,11.50
2017-10-11T19:16:20.449Z,11.50
2017-10-11T19:18:48.666Z,11.40
2017-10-11T19:21:16.926Z,11.40
2017-10-11T19:23:45.138Z,11.30
2017-10-11T19:26:14.322Z,11.20
2017-10-11T19:28:42.758Z,11.10
2017-10-11T19:31:11.174Z,11.10
2017-10-11T19:33:40.342Z,11.10
2017-10-11T19:36:08.790Z,11.10
2017-10-11T19:38:37.197Z,11.10
2017-10-11T19:41:05.606Z,11.00
2017-10-11T19:43:34.054Z,11.00
2017-10-11T19:46:02.475Z,11.00
2017-10-11T19:48:31.657Z,10.90
2017-10-11T19:50:59.909Z,10.80
2017-10-11T19:53:28.317Z,10.80
2017-10-11T19:55:56.713Z,10.80
2017-10-11T19:58:25.753Z,11.00
2017-10-11T20:00:53.973Z,10.90
2017-10-11T20:03:22.948Z,11.40
2017-10-11T20:05:51.180Z,11.40
2017-10-11T20:08:20.223Z,11.70
2017-10-11T20:10:48.628Z,11.80
2017-10-11T20:13:17.068Z,11.90
2017-10-11T20:15:45.475Z,12.00
2017-10-11T20:18:14.462Z,12.00
2017-10-11T20:20:43.471Z,11.90
2017-10-11T20:23:11.875Z,11.90
2017-10-11T20:25:40.306Z,11.90
2017-10-11T20:28:09.499Z,11.70
2017-10-11T20:30:37.939Z,11.70
2017-10-11T20:33:06.364Z,11.70
2017-10-11T20:35:35.554Z,11.70
2017-10-11T20:38:03.963Z,11.60
2017-10-11T20:40:32.378Z,11.60
2017-10-11T20:43:00.802Z,11.50
2017-10-11T20:45:29.974Z,11.40
2017-10-11T20:47:58.381Z,11.40
2017-10-11T20:50:27.574Z,11.30
2017-10-11T20:52:56.748Z,11.40
2017-10-11T20:55:25.149Z,11.30
2017-10-11T20:57:55.280Z,11.20
2017-10-11T21:00:23.674Z,11.20
2017-10-11T21:02:52.086Z,11.10
2017-10-11T21:05:20.497Z,11.00
2017-10-11T21:07:49.727Z,10.90
2017-10-11T21:10:18.146Z,10.90
2017-10-11T21:12:46.575Z,10.80
2017-10-11T21:15:14.987Z,10.80
2017-10-11T21:17:43.399Z,10.70
2017-10-11T21:20:11.852Z,10.70
2017-10-11T21:22:40.249Z,10.70
2017-10-11T21:25:08.660Z,10.60
2017-10-11T21:27:37.101Z,10.60
2017-10-11T21:30:05.512Z,10.80
2017-10-11T21:32:34.812Z,10.80
2017-10-11T21:35:03.267Z,10.70
2017-10-11T21:37:31.668Z,10.80
2017-10-11T21:40:00.847Z,10.80
2017-10-11T21:42:30.059Z,10.70
2017-10-11T21:44:59.225Z,10.70
2017-10-11T21:47:27.634Z,10.70
2017-10-11T21:49:56.856Z,10.70
2017-10-11T21:52:25.299Z,10.70
2017-10-11T21:54:54.479Z,10.80
2017-10-11T21:57:22.927Z,10.80
2017-10-11T21:59:51.335Z,10.80
2017-10-11T22:02:19.743Z,10.80
2017-10-11T22:04:48.955Z,10.70
2017-10-11T22:07:17.415Z,10.70
2017-10-11T22:09:46.583Z,10.60
2017-10-11T22:12:15.013Z,10.60
2017-10-11T22:14:43.426Z,10.60
2017-10-11T22:17:11.831Z,10.50
2017-10-11T22:19:40.274Z,10.50
2017-10-11T22:22:08.674Z,10.50
2017-10-11T22:24:37.106Z,10.40
2017-10-11T22:27:05.534Z,10.40
2017-10-11T22:29:33.947Z,10.30
2017-10-11T22:32:02.925Z,10.20
2017-10-11T22:34:32.133Z,10.10
2017-10-11T22:37:00.548Z,10.10
2017-10-11T22:39:28.953Z,10.00
2017-10-11T22:41:57.377Z,9.90
2017-10-11T22:44:25.792Z,9.90
2017-10-11T22:46:54.191Z,9.80
2017-10-11T22:49:22.438Z,9.80
2017-10-11T22:51:50.647Z,9.90
2017-10-11T22:54:19.071Z,10.10
2017-10-11T22:56:47.299Z,10.10
2017-10-11T22:59:17.017Z,10.10
2017-10-11T23:01:46.215Z,10.10
2017-10-11T23:04:15.410Z,10.10
2017-10-11T23:06:44.600Z,10.20
2017-10-11T23:09:12.815Z,10.10
2017-10-11T23:11:42.415Z,10.10
2017-10-11T23:14:10.813Z,10.00
2017-10-11T23:16:39.215Z,9.90
2017-10-11T23:19:07.639Z,10.00
2017-10-11T23:21:36.815Z,10.10
2017-10-11T23:24:05.227Z,10.10
2017-10-11T23:26:33.757Z,10.10
2017-10-11T23:29:02.161Z,10.00
2017-10-11T23:31:31.330Z,9.70
2017-10-11T23:33:59.567Z,9.70
2017-10-11T23:36:27.977Z,9.60
2017-10-11T23:38:56.371Z,9.80
2017-10-11T23:41:25.552Z,10.00
2017-10-11T23:43:53.955Z,10.00
2017-10-11T23:46:23.130Z,10.10
2017-10-11T23:48:51.570Z,10.10
2017-10-11T23:51:19.990Z,10.10
2017-10-11T23:53:48.414Z,10.10
2017-10-11T23:56:16.844Z,10.10
2017-10-11T23:58:45.258Z,10.20
